TimeCDT,TemperatureF,Dew PointF,Humidity,Sea Level PressureIn,VisibilityMPH,Wind Direction,Wind SpeedMPH,Gust SpeedMPH,PrecipitationIn,Events,Conditions,WindDirDegrees,DateUTC
12:15 AM,68.0,51.8,56,29.89,10.0,North,6.9,-,N/A,,Overcast,350,2013-05-16 05:15:00
12:35 AM,66.2,55.4,68,29.89,7.0,NNE,5.8,-,0.02,Rain,Rain,20,2013-05-16 05:35:00
12:55 AM,64.4,57.2,77,29.88,10.0,Calm,Calm,-,0.05,Rain,Light Rain,0,2013-05-16 05:55:00
1:15 AM,62.6,60.8,94,29.88,10.0,SE,3.5,-,N/A,,Mostly Cloudy,130,2013-05-16 06:15:00
1:35 AM,64.4,60.8,88,29.90,10.0,Calm,Calm,-,N/A,,Overcast,0,2013-05-16 06:35:00
1:55 AM,64.4,60.8,88,29.89,10.0,Calm,Calm,-,N/A,,Overcast,0,2013-05-16 06:55:00
2:15 AM,64.4,60.8,88,29.89,10.0,NW,6.9,-,N/A,,Overcast,310,2013-05-16 07:15:00
2:35 AM,64.4,60.8,88,29.88,10.0,North,3.5,-,0.07,Rain,Light Rain,10,2013-05-16 07:35:00
2:55 AM,64.4,60.8,88,29.88,10.0,Calm,Calm,-,0.07,Rain,Light Rain,0,2013-05-16 07:55:00
3:15 AM,64.4,62.6,94,29.89,10.0,Calm,Calm,-,0.01,Rain,Rain,0,2013-05-16 08:15:00
3:35 AM,64.4,60.8,88,29.88,10.0,Calm,Calm,-,0.01,,Clear,0,2013-05-16 08:35:00
3:55 AM,64.4,60.8,88,29.89,7.0,Calm,Calm,-,0.01,,Clear,0,2013-05-16 08:55:00
4:15 AM,62.6,60.8,94,29.89,5.0,Calm,Calm,-,N/A,,Clear,0,2013-05-16 09:15:00
4:35 AM,62.6,60.8,94,29.91,5.0,Calm,Calm,-,N/A,,Scattered Clouds,0,2013-05-16 09:35:00
4:55 AM,64.4,60.8,88,29.90,10.0,North,6.9,-,N/A,,Overcast,350,2013-05-16 09:55:00
5:15 AM,64.4,59.0,83,29.91,10.0,Calm,Calm,-,N/A,,Scattered Clouds,0,2013-05-16 10:15:00
5:35 AM,62.6,59.0,88,29.91,10.0,NNE,4.6,-,N/A,,Mostly Cloudy,20,2013-05-16 10:35:00
5:55 AM,62.6,59.0,88,29.90,10.0,NE,4.6,-,N/A,,Mostly Cloudy,50,2013-05-16 10:55:00
6:15 AM,62.6,57.2,82,29.90,10.0,ENE,8.1,-,N/A,Rain,Light Rain,60,2013-05-16 11:15:00
6:35 AM,62.6,57.2,82,29.92,10.0,Calm,Calm,-,N/A,Rain,Light Rain,0,2013-05-16 11:35:00
6:55 AM,62.6,59.0,88,29.93,10.0,South,3.5,-,0.01,Rain,Light Rain,170,2013-05-16 11:55:00
7:15 AM,62.6,59.0,88,29.93,10.0,Calm,Calm,-,N/A,Rain,Light Rain,0,2013-05-16 12:15:00
7:35 AM,62.6,60.8,94,29.93,10.0,Calm,Calm,-,N/A,Rain,Light Rain,0,2013-05-16 12:35:00
7:55 AM,64.4,60.8,88,29.93,10.0,Calm,Calm,-,N/A,,Light Drizzle,0,2013-05-16 12:55:00
8:15 AM,64.4,60.8,88,29.94,10.0,Calm,Calm,-,N/A,,Clear,0,2013-05-16 13:15:00
8:35 AM,66.2,60.8,83,29.93,10.0,SSE,4.6,-,N/A,,Scattered Clouds,150,2013-05-16 13:35:00
8:55 AM,68.0,60.8,78,29.94,10.0,SSE,6.9,-,N/A,,Scattered Clouds,150,2013-05-16 13:55:00
9:15 AM,69.8,60.8,73,29.94,10.0,SSE,4.6,-,N/A,,Clear,150,2013-05-16 14:15:00
9:35 AM,71.6,60.8,69,29.93,10.0,SSE,6.9,-,N/A,,Clear,150,2013-05-16 14:35:00
9:55 AM,73.4,57.2,57,29.92,10.0,SE,5.8,-,N/A,,Clear,140,2013-05-16 14:55:00
10:15 AM,75.2,53.6,47,29.92,10.0,East,5.8,-,N/A,,Clear,80,2013-05-16 15:15:00
10:35 AM,75.2,55.4,50,29.92,10.0,NE,4.6,-,N/A,,Clear,50,2013-05-16 15:35:00
10:55 AM,75.2,57.2,53,29.92,10.0,East,6.9,-,N/A,,Clear,80,2013-05-16 15:55:00
11:15 AM,75.2,55.4,50,29.92,10.0,East,5.8,-,N/A,,Clear,80,2013-05-16 16:15:00
11:35 AM,75.2,53.6,47,29.92,10.0,ENE,6.9,-,N/A,,Scattered Clouds,70,2013-05-16 16:35:00
11:55 AM,78.8,53.6,42,29.92,10.0,ENE,5.8,-,N/A,,Clear,70,2013-05-16 16:55:00
12:15 PM,78.8,55.4,44,29.91,10.0,East,9.2,-,N/A,,Clear,90,2013-05-16 17:15:00
12:35 PM,78.8,55.4,44,29.91,10.0,ENE,6.9,-,N/A,,Clear,60,2013-05-16 17:35:00
12:55 PM,80.6,55.4,42,29.90,10.0,East,5.8,-,N/A,,Clear,90,2013-05-16 17:55:00
1:15 PM,80.6,53.6,39,29.90,10.0,ENE,8.1,-,N/A,,Scattered Clouds,70,2013-05-16 18:15:00
1:35 PM,80.6,55.4,42,29.90,10.0,ENE,6.9,-,N/A,,Overcast,60,2013-05-16 18:35:00
2:15 PM,82.4,57.2,42,29.88,10.0,East,8.1,-,N/A,,Clear,90,2013-05-16 19:15:00
2:35 PM,82.4,57.2,42,29.87,10.0,ENE,8.1,-,N/A,,Clear,70,2013-05-16 19:35:00
2:55 PM,82.4,59.0,45,29.88,10.0,ESE,9.2,-,N/A,,Clear,110,2013-05-16 19:55:00
3:15 PM,75.2,60.8,61,29.89,10.0,South,8.1,-,N/A,,Mostly Cloudy,180,2013-05-16 20:15:00
3:35 PM,77.0,60.8,57,29.88,10.0,South,5.8,-,N/A,,Mostly Cloudy,180,2013-05-16 20:35:00
3:55 PM,78.8,60.8,54,29.87,10.0,SE,8.1,-,N/A,,Scattered Clouds,140,2013-05-16 20:55:00
4:15 PM,78.8,62.6,57,29.86,10.0,SSE,3.5,-,N/A,,Scattered Clouds,150,2013-05-16 21:15:00
4:35 PM,80.6,60.8,51,29.86,10.0,South,5.8,-,N/A,,Clear,170,2013-05-16 21:35:00
5:15 PM,82.4,57.2,42,29.86,10.0,SSE,5.8,-,N/A,,Clear,160,2013-05-16 22:15:00
5:35 PM,82.4,57.2,42,29.86,10.0,SE,4.6,-,N/A,,Clear,130,2013-05-16 22:35:00
5:55 PM,82.4,59.0,45,29.85,10.0,SE,3.5,-,N/A,,Clear,140,2013-05-16 22:55:00
6:15 PM,82.4,57.2,42,29.84,10.0,SSE,6.9,-,N/A,,Clear,150,2013-05-16 23:15:00
6:35 PM,82.4,57.2,42,29.85,10.0,SE,9.2,-,N/A,,Clear,140,2013-05-16 23:35:00
6:55 PM,80.6,57.2,45,29.85,10.0,SE,5.8,-,N/A,,Scattered Clouds,130,2013-05-16 23:55:00
7:15 PM,75.2,57.2,53,29.86,10.0,South,15.0,23.0,N/A,,Mostly Cloudy,180,2013-05-17 00:15:00
7:35 PM,75.2,57.2,53,29.86,10.0,South,8.1,-,N/A,,Scattered Clouds,190,2013-05-17 00:35:00
7:55 PM,73.4,57.2,57,29.86,10.0,South,4.6,-,N/A,,Scattered Clouds,190,2013-05-17 00:55:00
8:15 PM,71.6,57.2,60,29.87,10.0,SSW,3.5,-,N/A,,Clear,210,2013-05-17 01:15:00
8:35 PM,71.6,57.2,60,29.88,10.0,SSW,4.6,-,N/A,,Clear,210,2013-05-17 01:35:00
8:55 PM,71.6,59.0,64,29.90,10.0,SW,4.6,-,N/A,,Scattered Clouds,220,2013-05-17 01:55:00
9:15 PM,71.6,60.8,69,29.90,10.0,SSW,5.8,-,N/A,,Scattered Clouds,210,2013-05-17 02:15:00
9:35 PM,71.6,62.6,73,29.91,10.0,South,4.6,-,N/A,,Clear,190,2013-05-17 02:35:00
9:55 PM,69.8,62.6,78,29.91,10.0,SSW,3.5,-,N/A,,Clear,200,2013-05-17 02:55:00
10:15 PM,69.8,62.6,78,29.92,10.0,SSW,3.5,-,N/A,,Clear,210,2013-05-17 03:15:00
10:35 PM,69.8,62.6,78,29.91,10.0,South,4.6,-,N/A,,Clear,190,2013-05-17 03:35:00
10:55 PM,68.0,62.6,83,29.91,10.0,South,3.5,-,N/A,,Clear,190,2013-05-17 03:55:00
11:15 PM,68.0,62.6,83,29.91,10.0,South,3.5,-,N/A,,Clear,170,2013-05-17 04:15:00
11:35 PM,66.2,62.6,88,29.90,10.0,South,4.6,-,N/A,,Clear,180,2013-05-17 04:35:00
11:55 PM,68.0,62.6,83,29.90,10.0,South,6.9,-,N/A,,Clear,190,2013-05-17 04:55:00